createdAt,value
2019-06-08T00:00:38.147Z,100057.33
2019-06-08T00:05:42.220Z,100067.67
2019-06-08T00:10:46.248Z,100091.72
2019-06-08T00:15:50.422Z,100075.45
2019-06-08T00:20:55.024Z,100108.34
2019-06-08T00:25:59.126Z,100124.39
2019-06-08T00:31:03.263Z,100131.67
2019-06-08T00:36:07.262Z,100131.67
2019-06-08T00:41:11.394Z,100150.85
2019-06-08T00:46:15.504Z,100159.13
2019-06-08T00:51:20.867Z,100150.50
2019-06-08T00:56:25.990Z,100159.39
2019-06-08T01:01:30.881Z,100164.20
2019-06-08T01:06:35.302Z,100185.03
2019-06-08T01:11:39.378Z,100179.55
2019-06-08T01:16:43.373Z,100165.79
2019-06-08T01:21:47.399Z,100196.87
2019-06-08T01:26:51.386Z,100203.59
2019-06-08T01:31:55.514Z,100193.75
2019-06-08T01:36:59.632Z,100221.38
2019-06-08T01:42:03.694Z,100264.39
2019-06-08T01:47:07.697Z,100277.44
2019-06-08T01:52:12.015Z,100249.34
2019-06-08T01:57:16.036Z,100247.13
2019-06-08T02:02:20.109Z,100247.13
2019-06-08T02:07:24.265Z,100246.95
2019-06-08T02:12:28.877Z,100239.49
2019-06-08T02:17:33.498Z,100239.49
2019-06-08T02:22:39.296Z,100235.28
2019-06-08T02:27:43.552Z,100243.06
2019-06-08T02:32:47.615Z,100250.69
2019-06-08T02:37:51.767Z,100261.04
2019-06-08T02:42:55.988Z,100240.84
2019-06-08T02:48:00.075Z,100222.88
2019-06-08T02:53:05.164Z,100222.88
2019-06-08T02:58:09.790Z,100225.09
2019-06-08T03:03:14.552Z,100225.09
2019-06-08T03:08:19.712Z,100234.08
2019-06-08T03:13:24.837Z,100241.20
2019-06-08T03:18:28.945Z,100224.91
2019-06-08T03:23:34.187Z,100259.69
2019-06-08T03:28:39.983Z,100261.92
2019-06-08T03:33:53.907Z,100261.92
2019-06-08T03:38:50.201Z,100268.81
2019-06-08T03:43:54.195Z,100295.31
2019-06-08T03:48:58.255Z,100308.97
2019-06-08T03:54:02.529Z,100308.97
2019-06-08T03:59:06.625Z,100312.43
2019-06-08T04:04:10.621Z,100312.43
2019-06-08T04:09:15.059Z,100313.28
2019-06-08T04:14:19.131Z,100329.19
2019-06-08T04:19:23.264Z,100309.01
2019-06-08T04:24:27.282Z,100347.53
2019-06-08T04:29:31.254Z,100367.36
2019-06-08T04:34:35.273Z,100367.28
2019-06-08T04:39:40.252Z,100371.56
2019-06-08T04:44:44.597Z,100368.50
2019-06-08T04:49:48.957Z,100390.05
2019-06-08T04:54:52.954Z,100390.05
2019-06-08T04:59:57.030Z,100396.19
2019-06-08T05:05:01.038Z,100394.64
2019-06-08T05:10:06.080Z,100394.64
2019-06-08T05:15:10.920Z,100419.23
2019-06-08T05:20:15.167Z,100394.33
2019-06-08T05:25:19.249Z,100394.33
2019-06-08T05:30:23.781Z,100371.42
2019-06-08T05:35:27.802Z,100382.63
2019-06-08T05:40:31.872Z,100413.95
2019-06-08T05:45:36.027Z,100437.82
2019-06-08T05:50:54.892Z,100437.82
2019-06-08T05:55:46.154Z,100457.02
2019-06-08T06:00:50.713Z,100470.73
2019-06-08T06:05:54.949Z,100470.73
2019-06-08T06:10:58.984Z,100504.56
2019-06-08T06:16:02.991Z,100504.03
2019-06-08T06:21:11.880Z,100519.20
2019-06-08T06:26:14.005Z,100507.06
2019-06-08T06:31:18.064Z,100510.89
2019-06-08T06:36:22.283Z,100518.25
2019-06-08T06:41:26.387Z,100541.27
2019-06-08T06:46:30.459Z,100541.27
2019-06-08T06:51:34.445Z,100535.91
2019-06-08T06:56:38.473Z,100553.70
2019-06-08T07:01:43.451Z,100553.70
2019-06-08T07:06:48.130Z,100559.56
2019-06-08T07:11:53.021Z,100580.55
2019-06-08T07:16:58.292Z,100556.86
2019-06-08T07:22:02.428Z,100556.86
2019-06-08T07:27:07.657Z,100507.66
2019-06-08T07:32:11.769Z,100507.66
2019-06-08T07:37:15.759Z,100543.47
2019-06-08T07:42:19.764Z,100543.47
2019-06-08T07:47:23.763Z,100568.07
2019-06-08T07:52:28.105Z,100568.07
2019-06-08T07:57:32.112Z,100580.38
2019-06-08T08:02:36.101Z,100595.03
2019-06-08T08:07:40.082Z,100595.03
2019-06-08T08:12:44.091Z,100610.84
2019-06-08T08:17:49.041Z,100591.57
2019-06-08T08:22:57.683Z,100567.84
2019-06-08T08:28:00.687Z,100624.64
2019-06-08T08:33:07.573Z,100617.23
2019-06-08T08:38:11.244Z,100617.23
2019-06-08T08:43:17.630Z,100606.27
2019-06-08T08:48:28.010Z,100615.78
2019-06-08T08:53:27.979Z,100613.13
2019-06-08T08:58:32.112Z,100621.72
2019-06-08T09:03:39.355Z,100624.21
2019-06-08T09:08:41.853Z,100615.19
2019-06-08T09:13:48.692Z,100628.65
2019-06-08T09:18:52.738Z,100638.11
2019-06-08T09:24:00.710Z,100626.22
2019-06-08T09:29:08.286Z,100657.78
2019-06-08T09:34:14.443Z,100664.39
2019-06-08T09:39:15.250Z,100668.60
2019-06-08T09:44:19.366Z,100656.34
2019-06-08T09:49:23.399Z,100668.85
2019-06-08T09:54:28.296Z,100667.63
2019-06-08T09:59:32.466Z,100667.63
2019-06-08T10:04:38.537Z,100672.88
2019-06-08T10:09:43.421Z,100672.88
2019-06-08T10:14:48.978Z,100685.85
2019-06-08T10:19:54.581Z,100685.85
2019-06-08T10:25:02.801Z,100675.89
2019-06-08T10:30:06.921Z,100700.73
2019-06-08T10:35:11.052Z,100692.42
2019-06-08T10:40:15.256Z,100692.42
2019-06-08T10:45:20.521Z,100680.02
2019-06-08T10:50:24.940Z,100676.22
2019-06-08T10:55:29.111Z,100674.84
2019-06-08T11:00:33.214Z,100667.69
2019-06-08T11:05:37.296Z,100662.52
2019-06-08T11:10:41.373Z,100659.43
2019-06-08T11:15:48.007Z,100638.23
2019-06-08T11:20:51.403Z,100638.23
2019-06-08T11:25:55.549Z,100673.06
2019-06-08T11:30:59.792Z,100644.57
2019-06-08T11:36:06.310Z,100654.70
2019-06-08T11:41:13.411Z,100662.65
2019-06-08T11:46:20.670Z,100675.83
2019-06-08T11:51:21.363Z,100675.83
2019-06-08T11:56:26.224Z,100677.44
2019-06-08T12:01:30.235Z,100670.97
2019-06-08T12:06:34.225Z,100679.45
2019-06-08T12:11:38.417Z,100674.98
2019-06-08T12:16:42.504Z,100677.45
2019-06-08T12:21:49.650Z,100690.14
2019-06-08T12:26:58.890Z,100684.16
2019-06-08T12:32:00.261Z,100678.58
2019-06-08T12:37:05.314Z,100695.95
2019-06-08T12:42:15.601Z,100663.22
2019-06-08T12:47:20.589Z,100692.85
2019-06-08T12:52:22.476Z,100692.85
2019-06-08T12:57:28.591Z,100699.19
2019-06-08T13:02:32.468Z,100703.43
2019-06-08T13:07:38.590Z,100711.20
2019-06-08T13:12:42.596Z,100711.20
2019-06-08T13:17:47.789Z,100720.55
2019-06-08T13:22:52.417Z,100719.19
2019-06-08T13:27:58.272Z,100719.19
2019-06-08T13:33:02.197Z,100709.48
2019-06-08T13:38:08.507Z,100725.01
2019-06-08T13:43:13.269Z,100726.38
2019-06-08T13:48:18.961Z,100731.95
2019-06-08T13:53:28.386Z,100726.31
2019-06-08T13:58:33.095Z,100736.59
2019-06-08T14:03:34.881Z,100712.22
2019-06-08T14:08:38.908Z,100720.37
2019-06-08T14:13:43.117Z,100720.37
2019-06-08T14:18:48.598Z,100727.77
2019-06-08T14:23:52.873Z,100739.34
2019-06-08T14:29:00.738Z,100730.62
2019-06-08T14:34:02.752Z,100730.62
2019-06-08T14:39:10.446Z,100712.16
2019-06-08T14:44:13.629Z,100712.16
2019-06-08T14:49:22.724Z,100723.60
2019-06-08T14:54:27.164Z,100723.60
2019-06-08T14:59:30.453Z,100728.70
2019-06-08T15:04:36.876Z,100723.65
2019-06-08T15:09:41.111Z,100722.30
2019-06-08T15:14:47.588Z,100728.70
2019-06-08T15:19:51.040Z,100728.70
2019-06-08T15:24:55.071Z,100721.58
2019-06-08T15:29:59.187Z,100731.28
2019-06-08T15:35:03.447Z,100731.28
2019-06-08T15:40:07.918Z,100728.59
2019-06-08T15:45:12.189Z,100727.15
2019-06-08T15:50:18.017Z,100737.14
2019-06-08T15:55:22.981Z,100734.30
2019-06-08T16:00:29.287Z,100731.83
2019-06-08T16:05:33.872Z,100731.83
2019-06-08T16:10:37.977Z,100720.77
2019-06-08T16:15:42.053Z,100721.49
2019-06-08T16:20:46.121Z,100726.91
2019-06-08T16:25:50.146Z,100726.91
2019-06-08T16:30:54.256Z,100722.13
2019-06-08T16:35:58.425Z,100726.81
2019-06-08T16:41:02.552Z,100726.81
2019-06-08T16:46:06.615Z,100735.05
2019-06-08T16:51:10.620Z,100733.97
2019-06-08T16:56:14.766Z,100740.25
2019-06-08T17:01:18.852Z,100742.84
2019-06-08T17:06:22.931Z,100738.54
2019-06-08T17:11:26.913Z,100717.73
2019-06-08T17:16:34.436Z,100733.25
2019-06-08T17:21:38.707Z,100735.96
2019-06-08T17:26:42.715Z,100722.05
2019-06-08T17:31:46.712Z,100743.70
2019-06-08T17:36:50.727Z,100745.55
2019-06-08T17:41:54.791Z,100750.33
2019-06-08T17:46:58.785Z,100749.25
2019-06-08T17:52:02.856Z,100749.25
2019-06-08T17:57:07.016Z,100754.80
2019-06-08T18:02:17.197Z,100751.58
2019-06-08T18:07:17.220Z,100767.84
2019-06-08T18:12:21.249Z,100773.27
2019-06-08T18:17:27.740Z,100785.33
2019-06-08T18:22:31.621Z,100793.09
2019-06-08T18:27:39.153Z,100793.09
2019-06-08T18:32:44.001Z,100795.33
2019-06-08T18:37:49.218Z,100805.44
2019-06-08T18:42:53.781Z,100805.44
2019-06-08T18:47:57.888Z,100817.37
2019-06-08T18:53:01.848Z,100823.51
2019-06-08T18:58:17.606Z,100820.19
2019-06-08T19:03:11.641Z,100831.25
2019-06-08T19:08:17.961Z,100845.17
2019-06-08T19:13:22.325Z,100845.65
2019-06-08T19:18:26.912Z,100856.74
2019-06-08T19:23:32.056Z,100856.74
2019-06-08T19:28:40.499Z,100869.43
2019-06-08T19:33:41.800Z,100873.14
2019-06-08T19:38:48.088Z,100886.91
2019-06-08T19:43:54.662Z,100886.91
2019-06-08T19:48:59.037Z,100893.77
2019-06-08T19:54:03.269Z,100893.77
2019-06-08T19:59:08.482Z,100903.36
2019-06-08T20:04:12.646Z,100908.98
2019-06-08T20:09:17.392Z,100926.67
2019-06-08T20:14:21.509Z,100930.08
2019-06-08T20:19:27.776Z,100931.30
2019-06-08T20:24:31.397Z,100940.28
2019-06-08T20:29:37.963Z,100947.50
2019-06-08T20:34:42.355Z,100948.69
2019-06-08T20:40:00.679Z,100947.78
2019-06-08T20:44:53.171Z,100947.78
2019-06-08T20:49:58.274Z,100953.51
2019-06-08T20:55:02.691Z,100950.55
2019-06-08T21:00:09.150Z,100958.87
2019-06-08T21:05:13.745Z,100951.04
2019-06-08T21:10:17.880Z,100967.11
2019-06-08T21:15:21.873Z,100974.94
2019-06-08T21:20:28.125Z,100971.45
2019-06-08T21:25:31.571Z,100973.41
2019-06-08T21:30:37.530Z,100980.14
2019-06-08T21:35:41.361Z,100974.77
2019-06-08T21:40:45.376Z,100967.22
2019-06-08T21:45:51.459Z,100969.55
2019-06-08T21:50:59.470Z,100962.68
2019-06-08T21:56:00.809Z,100959.31
2019-06-08T22:01:07.350Z,100958.86
2019-06-08T22:06:11.142Z,100958.86
2019-06-08T22:11:17.600Z,100960.23
2019-06-08T22:16:21.222Z,100960.09
2019-06-08T22:21:27.861Z,100960.09
2019-06-08T22:26:31.213Z,100971.28
2019-06-08T22:31:37.588Z,100971.45
2019-06-08T22:36:41.230Z,100974.85
2019-06-08T22:41:47.668Z,100977.64
2019-06-08T22:46:51.193Z,100982.11
2019-06-08T22:51:58.076Z,100983.52
2019-06-08T22:57:02.785Z,100988.63
2019-06-08T23:02:09.044Z,100987.77
2019-06-08T23:07:25.668Z,100986.77
2019-06-08T23:12:19.302Z,100989.37
2019-06-08T23:17:23.421Z,100975.63
2019-06-08T23:22:27.475Z,100992.52
2019-06-08T23:27:31.588Z,100983.77
2019-06-08T23:32:38.377Z,100999.48
2019-06-08T23:37:41.600Z,100997.36
2019-06-08T23:42:47.639Z,101001.53
2019-06-08T23:47:51.648Z,101010.20
2019-06-08T23:52:55.833Z,101009.77
2019-06-08T23:58:01.427Z,101009.77
